Time;durP1;ratioP1;P1;durP2;ratioP2;P2;SDS_P1;SDS_P2;PMS_P1;PMS_P2;Temp;Humidity;BMP_temperature;BMP_pressure;BME280_temperature;BME280_humidity;BME280_pressure;Samples;Min_cycle;Max_cycle;Signal;HPM_P1;HPM_P2
2021/10/21 00:01:49;;;;;;;6.28;3.05;;;15.20;89.50;;;;;;5050557;28;20021;-83
2021/10/21 00:04:15;;;;;;;4.68;2.50;;;15.20;89.50;;;;;;5050456;28;20031;-83
2021/10/21 00:06:41;;;;;;;5.20;2.75;;;15.20;89.40;;;;;;5052295;28;20431;-80
2021/10/21 00:09:07;;;;;;;5.10;2.72;;;15.20;89.50;;;;;;5051683;28;20040;-81
2021/10/21 00:11:33;;;;;;;5.40;3.50;;;15.20;89.50;;;;;;5051914;28;20037;-81
2021/10/21 00:14:00;;;;;;;5.82;3.30;;;15.20;89.80;;;;;;5050633;28;20033;-81
2021/10/21 00:16:26;;;;;;;6.10;2.95;;;15.20;90.10;;;;;;5052353;28;20521;-80
2021/10/21 00:18:51;;;;;;;5.57;3.45;;;15.20;90.10;;;;;;5043337;28;20029;-79
2021/10/21 00:21:18;;;;;;;6.15;3.67;;;15.30;90.00;;;;;;5051780;28;20079;-79
2021/10/21 00:23:43;;;;;;;4.55;3.28;;;15.30;90.00;;;;;;5051554;28;20029;-80
2021/10/21 00:26:09;;;;;;;6.93;3.47;;;15.30;89.90;;;;;;5050537;28;20036;-80
2021/10/21 00:28:35;;;;;;;7.30;3.80;;;15.40;89.90;;;;;;5049767;28;20025;-81
2021/10/21 00:31:01;;;;;;;5.60;3.03;;;15.40;90.00;;;;;;5049323;28;20494;-79
2021/10/21 00:33:27;;;;;;;3.28;2.28;;;15.30;89.80;;;;;;5049370;28;20025;-79
2021/10/21 00:35:53;;;;;;;3.67;2.42;;;15.30;89.60;;;;;;5050751;28;20049;-80
2021/10/21 00:38:18;;;;;;;4.78;2.72;;;15.20;89.40;;;;;;5050745;28;20113;-79
2021/10/21 00:40:44;;;;;;;5.60;2.22;;;15.20;89.50;;;;;;5051151;28;20032;-79
2021/10/21 00:43:09;;;;;;;6.18;3.80;;;15.20;89.50;;;;;;5063153;28;20017;-80
2021/10/21 00:45:35;;;;;;;5.22;2.88;;;15.20;89.80;;;;;;5045700;28;20087;-81
2021/10/21 00:48:00;;;;;;;5.50;3.00;;;15.20;89.90;;;;;;5049318;28;20029;-81
2021/10/21 00:50:26;;;;;;;4.43;2.80;;;15.20;90.00;;;;;;5045864;28;20024;-81
2021/10/21 00:52:52;;;;;;;5.15;3.45;;;15.30;90.00;;;;;;5048753;28;20119;-81
2021/10/21 00:55:19;;;;;;;6.72;3.50;;;15.30;90.00;;;;;;5042583;28;20041;-81
2021/10/21 00:57:44;;;;;;;5.20;3.42;;;15.30;90.00;;;;;;5049795;28;20024;-81
2021/10/21 01:00:10;;;;;;;5.15;3.25;;;15.30;90.00;;;;;;5041693;28;20035;-80
2021/10/21 01:02:36;;;;;;;7.95;3.20;;;15.30;89.90;;;;;;5044806;28;20025;-80
2021/10/21 01:05:02;;;;;;;5.57;3.17;;;15.40;89.70;;;;;;5043747;28;20063;-81
2021/10/21 01:07:28;;;;;;;6.72;3.40;;;15.40;89.50;;;;;;5048258;28;20602;-81
2021/10/21 01:09:54;;;;;;;4.65;3.13;;;15.40;89.40;;;;;;5043526;28;20107;-81
2021/10/21 01:12:20;;;;;;;7.13;3.67;;;15.40;89.10;;;;;;5041483;28;20025;-81
2021/10/21 01:14:46;;;;;;;6.43;3.10;;;15.40;88.90;;;;;;5049819;28;20036;-80
2021/10/21 01:17:15;;;;;;;5.70;2.92;;;15.40;88.60;;;;;;5046990;28;20029;-81
2021/10/21 01:19:42;;;;;;;4.18;2.42;;;15.40;88.10;;;;;;5046840;28;20041;-81
2021/10/21 01:22:08;;;;;;;4.55;2.70;;;15.40;87.60;;;;;;5043244;28;20024;-81
2021/10/21 01:24:34;;;;;;;6.35;2.03;;;15.40;86.40;;;;;;5044308;28;20497;-81
2021/10/21 01:27:01;;;;;;;3.78;2.08;;;15.40;85.80;;;;;;5043821;28;20793;-81
2021/10/21 01:29:27;;;;;;;2.90;1.70;;;15.40;84.70;;;;;;5046432;28;20026;-82
2021/10/21 01:31:55;;;;;;;4.30;2.00;;;15.30;84.40;;;;;;5047374;28;20029;-81
2021/10/21 01:34:20;;;;;;;4.35;1.90;;;15.30;83.40;;;;;;5045117;28;20037;-81
2021/10/21 01:36:53;;;;;;;3.75;1.70;;;15.30;82.40;;;;;;5048248;28;20040;-81
2021/10/21 01:39:20;;;;;;;3.70;1.70;;;15.20;82.20;;;;;;5052578;28;20029;-82
2021/10/21 01:41:46;;;;;;;2.83;1.75;;;15.20;81.60;;;;;;5038966;28;20026;-82
2021/10/21 01:44:12;;;;;;;2.85;1.70;;;15.20;80.80;;;;;;5047490;28;20025;-82
2021/10/21 01:46:39;;;;;;;2.83;1.45;;;15.20;80.10;;;;;;5046487;28;20466;-82
2021/10/21 01:49:04;;;;;;;3.45;1.20;;;15.10;80.20;;;;;;5041971;28;20032;-83
2021/10/21 01:51:30;;;;;;;2.75;1.05;;;15.00;78.90;;;;;;5045078;28;20368;-82
2021/10/21 01:53:56;;;;;;;1.58;1.00;;;14.80;79.20;;;;;;5049695;28;20079;-82
2021/10/21 01:56:23;;;;;;;1.00;0.80;;;14.60;78.80;;;;;;5043588;28;20040;-82
2021/10/21 01:58:49;;;;;;;1.70;0.70;;;14.50;78.70;;;;;;5035020;28;20031;-82
2021/10/21 02:01:15;;;;;;;2.35;0.77;;;14.40;79.10;;;;;;5046059;28;20024;-82
2021/10/21 02:03:40;;;;;;;1.65;0.88;;;14.30;79.00;;;;;;5042100;28;20029;-81
2021/10/21 02:06:06;;;;;;;1.20;0.77;;;14.20;79.30;;;;;;5046495;28;20035;-82
2021/10/21 02:08:31;;;;;;;1.67;0.70;;;14.00;79.20;;;;;;5046861;28;20434;-82
2021/10/21 02:10:57;;;;;;;2.10;0.70;;;13.90;79.60;;;;;;5045158;28;20018;-81
2021/10/21 02:13:22;;;;;;;2.33;0.65;;;13.80;80.00;;;;;;5041748;28;20488;-81
2021/10/21 02:15:48;;;;;;;1.73;0.90;;;13.70;80.40;;;;;;5046508;28;20058;-81
2021/10/21 02:18:13;;;;;;;2.80;1.00;;;13.60;80.80;;;;;;5043625;28;20017;-81
2021/10/21 02:20:39;;;;;;;2.92;1.00;;;13.50;81.20;;;;;;5052418;28;20125;-81
2021/10/21 02:23:04;;;;;;;2.78;0.93;;;13.50;81.60;;;;;;5048533;28;20021;-82
2021/10/21 02:25:30;;;;;;;4.78;1.20;;;13.40;81.70;;;;;;5050600;28;20116;-82
2021/10/21 02:27:55;;;;;;;3.25;0.90;;;13.40;81.90;;;;;;5052366;28;20025;-81
2021/10/21 02:30:21;;;;;;;4.80;0.80;;;13.30;82.10;;;;;;5047700;28;20025;-81
2021/10/21 02:32:47;;;;;;;2.17;0.82;;;13.30;82.20;;;;;;5046944;28;20485;-81
2021/10/21 02:35:13;;;;;;;1.70;0.90;;;13.30;82.30;;;;;;5045466;28;20432;-81
2021/10/21 02:37:40;;;;;;;2.63;1.02;;;13.30;82.40;;;;;;5051032;28;20026;-80
2021/10/21 02:40:08;;;;;;;2.83;0.90;;;13.30;82.40;;;;;;5048596;28;20108;-79
2021/10/21 02:42:33;;;;;;;1.73;0.90;;;13.30;82.40;;;;;;5040975;28;20087;-79
2021/10/21 02:44:59;;;;;;;2.05;0.80;;;13.30;82.50;;;;;;5051389;28;20037;-78
2021/10/21 02:47:25;;;;;;;2.45;0.77;;;13.30;82.30;;;;;;5052446;28;20367;-79
2021/10/21 02:49:50;;;;;;;3.53;0.80;;;13.40;82.20;;;;;;5043558;28;20059;-79
2021/10/21 02:52:16;;;;;;;3.90;1.05;;;13.40;81.80;;;;;;5046558;28;20067;-78
2021/10/21 02:54:41;;;;;;;2.28;0.90;;;13.40;80.90;;;;;;5047197;28;20057;-79
2021/10/21 02:57:07;;;;;;;2.47;0.90;;;13.40;80.80;;;;;;5052815;28;20032;-79
2021/10/21 02:59:32;;;;;;;3.05;0.98;;;13.50;81.30;;;;;;5050145;28;20116;-78
2021/10/21 03:01:58;;;;;;;3.65;0.90;;;13.50;80.30;;;;;;5050037;28;20051;-78
2021/10/21 03:04:24;;;;;;;2.78;1.00;;;13.50;80.20;;;;;;5048739;28;20100;-79
2021/10/21 03:06:49;;;;;;;4.22;1.20;;;13.60;79.70;;;;;;5051812;28;20061;-79
2021/10/21 03:09:15;;;;;;;3.88;1.05;;;13.60;78.90;;;;;;5067174;28;20025;-80
2021/10/21 03:11:40;;;;;;;2.42;0.73;;;13.50;78.30;;;;;;5049249;28;20505;-79
2021/10/21 03:14:06;;;;;;;4.45;1.10;;;13.60;78.20;;;;;;5046702;28;20045;-78
2021/10/21 03:16:34;;;;;;;3.13;0.93;;;13.60;77.90;;;;;;5048030;28;20064;-78
2021/10/21 03:19:04;;;;;;;2.25;0.93;;;13.60;78.00;;;;;;5049432;28;20095;-79
2021/10/21 03:21:30;;;;;;;2.17;0.90;;;13.70;77.90;;;;;;5047074;28;20021;-79
2021/10/21 03:23:56;;;;;;;2.65;0.90;;;13.60;77.80;;;;;;5052124;28;20513;-79
2021/10/21 03:26:22;;;;;;;3.00;0.93;;;13.60;78.50;;;;;;5042355;28;20021;-81
2021/10/21 03:28:48;;;;;;;1.55;0.80;;;13.50;79.20;;;;;;5052735;28;20036;-79
2021/10/21 03:31:13;;;;;;;3.70;1.02;;;13.40;79.90;;;;;;5040698;28;20029;-79
2021/10/21 03:33:39;;;;;;;3.42;0.88;;;13.30;80.50;;;;;;5045754;28;20086;-78
2021/10/21 03:36:05;;;;;;;2.50;0.68;;;13.30;81.20;;;;;;5049829;28;20048;-79
2021/10/21 03:38:32;;;;;;;2.78;1.00;;;13.20;81.60;;;;;;5053690;28;20383;-80
2021/10/21 03:40:57;;;;;;;3.72;1.08;;;13.20;82.20;;;;;;5047877;28;20040;-80
2021/10/21 03:43:23;;;;;;;2.78;0.98;;;13.20;82.60;;;;;;5046601;28;20029;-80
2021/10/21 03:45:49;;;;;;;4.15;1.05;;;13.10;82.80;;;;;;5051090;28;20028;-80
2021/10/21 03:48:15;;;;;;;1.77;0.93;;;13.10;83.00;;;;;;5050863;28;20071;-80
2021/10/21 03:50:40;;;;;;;3.28;1.30;;;13.10;83.30;;;;;;5043526;28;20037;-81
2021/10/21 03:53:09;;;;;;;4.43;1.15;;;13.10;83.40;;;;;;5050433;28;20399;-80
2021/10/21 03:55:36;;;;;;;3.17;1.00;;;13.10;83.50;;;;;;5037109;28;20083;-80
2021/10/21 03:58:02;;;;;;;2.38;0.90;;;13.10;83.60;;;;;;5044002;28;20029;-81
2021/10/21 04:00:27;;;;;;;3.47;1.20;;;13.10;83.70;;;;;;5048983;28;20033;-80
2021/10/21 04:02:53;;;;;;;2.38;1.20;;;13.10;83.70;;;;;;5046961;28;20032;-80
2021/10/21 04:05:21;;;;;;;3.83;1.33;;;13.10;83.90;;;;;;5041471;28;20030;-80
2021/10/21 04:07:47;;;;;;;2.72;0.95;;;13.10;83.90;;;;;;5039875;28;20594;-80
2021/10/21 04:10:13;;;;;;;3.25;1.10;;;13.10;83.80;;;;;;5048792;28;20104;-81
2021/10/21 04:12:38;;;;;;;3.67;0.90;;;13.10;83.80;;;;;;5040184;28;20036;-81
2021/10/21 04:15:05;;;;;;;3.47;1.08;;;13.10;83.90;;;;;;5049080;28;20175;-81
2021/10/21 04:17:30;;;;;;;2.03;0.90;;;13.10;84.00;;;;;;5045372;28;20504;-80
2021/10/21 04:19:56;;;;;;;2.60;1.00;;;13.10;84.20;;;;;;5050744;28;20111;-81
2021/10/21 04:22:21;;;;;;;2.40;0.80;;;13.10;84.40;;;;;;5046491;28;20122;-81
2021/10/21 04:24:47;;;;;;;2.08;0.82;;;13.10;85.10;;;;;;5050646;28;20024;-81
2021/10/21 04:27:12;;;;;;;4.18;1.10;;;13.00;84.70;;;;;;5048069;28;20415;-81
2021/10/21 04:29:38;;;;;;;1.50;0.95;;;13.00;84.90;;;;;;5048087;28;20028;-81
2021/10/21 04:32:04;;;;;;;3.85;1.10;;;13.00;85.10;;;;;;5039299;28;20022;-80
2021/10/21 04:34:29;;;;;;;2.42;0.88;;;12.90;85.20;;;;;;5046971;28;20128;-80
2021/10/21 04:36:55;;;;;;;2.70;0.93;;;13.00;85.50;;;;;;5045362;28;20061;-80
2021/10/21 04:39:20;;;;;;;2.78;0.90;;;12.90;85.60;;;;;;5049331;28;20029;-81
2021/10/21 04:41:46;;;;;;;2.40;1.05;;;12.90;85.80;;;;;;5046080;28;20021;-81
2021/10/21 04:44:11;;;;;;;2.78;0.90;;;12.90;85.90;;;;;;5040235;28;20496;-81
2021/10/21 04:46:37;;;;;;;2.65;0.90;;;12.90;86.00;;;;;;5041964;28;20055;-82
2021/10/21 04:49:03;;;;;;;3.22;1.00;;;12.90;86.00;;;;;;5038932;28;20096;-82
2021/10/21 04:51:28;;;;;;;1.88;0.82;;;12.90;86.00;;;;;;5048529;28;20104;-83
2021/10/21 04:53:54;;;;;;;2.75;1.00;;;12.90;86.10;;;;;;5037439;28;20116;-83
2021/10/21 04:56:19;;;;;;;2.95;1.13;;;12.90;86.80;;;;;;5047655;28;20029;-82
2021/10/21 04:58:45;;;;;;;2.33;0.93;;;12.90;86.30;;;;;;5044428;28;20029;-82
2021/10/21 05:01:10;;;;;;;2.92;1.05;;;12.90;86.40;;;;;;5053215;28;20046;-83
2021/10/21 05:03:36;;;;;;;3.55;1.35;;;12.90;86.30;;;;;;5049662;28;20025;-82
2021/10/21 05:06:01;;;;;;;2.13;1.08;;;12.90;86.30;;;;;;5039850;28;20018;-79
2021/10/21 05:08:27;;;;;;;2.30;0.70;;;12.90;86.40;;;;;;5042699;28;20028;-80
2021/10/21 05:10:53;;;;;;;2.25;0.90;;;12.90;86.50;;;;;;5060309;28;20489;-81
2021/10/21 05:13:18;;;;;;;2.92;0.90;;;13.00;86.50;;;;;;5056912;28;20035;-81
2021/10/21 05:15:44;;;;;;;2.90;0.82;;;12.90;86.40;;;;;;5038709;28;20029;-80
2021/10/21 05:18:09;;;;;;;3.17;1.20;;;13.00;86.50;;;;;;5046119;28;20064;-80
2021/10/21 05:20:35;;;;;;;3.30;1.08;;;12.90;86.50;;;;;;5041617;28;20039;-80
2021/10/21 05:23:02;;;;;;;2.50;1.00;;;13.00;86.60;;;;;;5044719;28;20033;-79
2021/10/21 05:25:27;;;;;;;2.00;0.90;;;13.00;86.70;;;;;;5054136;28;20021;-80
2021/10/21 05:27:54;;;;;;;1.48;0.90;;;13.00;86.70;;;;;;5038744;28;20056;-81
2021/10/21 05:30:20;;;;;;;2.63;1.10;;;12.90;86.60;;;;;;5049743;28;20103;-80
2021/10/21 05:32:46;;;;;;;2.30;1.10;;;13.00;86.70;;;;;;5049263;28;20120;-80
2021/10/21 05:35:12;;;;;;;2.25;0.90;;;12.90;86.80;;;;;;5046372;28;20049;-83
2021/10/21 05:37:38;;;;;;;2.28;0.93;;;12.90;87.00;;;;;;5043911;28;20054;-84
2021/10/21 05:40:07;;;;;;;2.58;0.98;;;12.90;87.10;;;;;;5052661;28;20036;-83
2021/10/21 05:42:33;;;;;;;2.53;0.90;;;12.90;87.20;;;;;;5048171;28;20090;-83
2021/10/21 05:44:59;;;;;;;2.03;1.45;;;12.80;87.20;;;;;;5056879;28;20390;-83
2021/10/21 05:47:24;;;;;;;2.15;1.10;;;12.80;88.00;;;;;;5043580;28;20044;-83
2021/10/21 05:49:50;;;;;;;2.35;0.98;;;12.70;87.50;;;;;;5039727;28;20457;-83
2021/10/21 05:52:16;;;;;;;1.17;1.00;;;12.60;87.10;;;;;;5039229;28;20029;-83
2021/10/21 05:54:42;;;;;;;1.52;1.00;;;12.50;86.70;;;;;;5052847;28;20495;-83
2021/10/21 05:57:08;;;;;;;0.95;0.80;;;12.40;86.70;;;;;;5046149;28;20045;-83
2021/10/21 05:59:34;;;;;;;1.63;1.00;;;12.30;86.70;;;;;;5042390;28;20063;-84
2021/10/21 06:02:00;;;;;;;0.90;0.75;;;12.20;86.70;;;;;;5042628;28;20023;-83
2021/10/21 06:04:25;;;;;;;2.45;0.95;;;12.10;86.60;;;;;;5039988;28;20021;-84
2021/10/21 06:06:51;;;;;;;1.52;0.70;;;12.00;86.40;;;;;;5050093;28;20116;-84
2021/10/21 06:09:20;;;;;;;2.47;0.73;;;11.90;86.30;;;;;;5050684;28;20538;-83
2021/10/21 06:11:46;;;;;;;1.23;0.68;;;11.80;86.30;;;;;;5042209;28;20025;-83
2021/10/21 06:14:12;;;;;;;1.40;0.68;;;11.70;86.30;;;;;;5054061;28;20036;-83
2021/10/21 06:16:38;;;;;;;0.88;0.57;;;11.70;86.40;;;;;;5048219;28;20021;-84
2021/10/21 06:19:04;;;;;;;1.63;0.70;;;11.70;86.60;;;;;;5050700;28;20078;-84
2021/10/21 06:21:29;;;;;;;1.40;0.60;;;11.70;86.70;;;;;;5042904;28;20103;-83
2021/10/21 06:23:55;;;;;;;0.98;0.60;;;11.70;86.70;;;;;;5053290;28;20025;-84
2021/10/21 06:26:21;;;;;;;0.60;0.60;;;11.70;86.80;;;;;;5046685;28;20029;-83
2021/10/21 06:28:49;;;;;;;1.73;0.70;;;11.60;86.80;;;;;;5058468;28;20382;-83
2021/10/21 06:31:16;;;;;;;1.73;0.63;;;11.70;86.80;;;;;;5058046;28;20032;-83
2021/10/21 06:33:43;;;;;;;2.42;0.80;;;11.60;86.80;;;;;;5052730;28;20029;-84
2021/10/21 06:36:10;;;;;;;1.45;0.60;;;11.60;87.40;;;;;;5044141;28;20579;-84
2021/10/21 06:38:35;;;;;;;2.42;1.00;;;11.70;86.80;;;;;;5047055;28;20394;-84
2021/10/21 06:41:01;;;;;;;3.28;0.80;;;11.70;86.80;;;;;;5042122;28;20024;-84
2021/10/21 06:43:26;;;;;;;1.40;0.70;;;11.60;86.80;;;;;;5053260;28;20029;-83
2021/10/21 06:45:52;;;;;;;2.55;0.80;;;11.70;86.80;;;;;;5056302;28;20044;-84
2021/10/21 06:48:18;;;;;;;1.48;0.70;;;11.70;86.90;;;;;;5043958;28;20036;-82
2021/10/21 06:50:43;;;;;;;2.53;1.00;;;11.70;87.00;;;;;;5046531;28;20028;-83
2021/10/21 06:53:09;;;;;;;1.92;0.75;;;11.70;87.00;;;;;;5046324;28;20072;-83
2021/10/21 06:55:35;;;;;;;1.55;0.82;;;11.70;87.00;;;;;;5045457;28;20470;-84
2021/10/21 06:58:00;;;;;;;1.40;0.88;;;11.70;87.00;;;;;;5045345;28;20140;-83
2021/10/21 07:00:27;;;;;;;3.85;1.00;;;11.70;87.00;;;;;;5051589;28;20476;-83
2021/10/21 07:02:53;;;;;;;1.83;0.80;;;11.80;87.00;;;;;;5042840;28;20308;-84
2021/10/21 07:05:24;;;;;;;3.05;1.05;;;11.80;86.90;;;;;;5070031;28;20020;-84
2021/10/21 07:07:53;;;;;;;3.83;0.95;;;11.80;86.80;;;;;;5049404;28;20116;-84
2021/10/21 07:10:21;;;;;;;4.55;1.27;;;11.80;86.70;;;;;;5050686;28;20029;-84
2021/10/21 07:12:47;;;;;;;3.10;0.90;;;11.90;86.80;;;;;;5049109;28;20064;-80
2021/10/21 07:15:15;;;;;;;2.30;0.90;;;11.90;86.70;;;;;;5051197;28;20044;-82
2021/10/21 07:17:41;;;;;;;4.03;1.20;;;11.90;86.70;;;;;;5046941;28;20568;-82
2021/10/21 07:20:08;;;;;;;5.68;1.38;;;11.90;86.60;;;;;;5051888;28;20598;-85
2021/10/21 07:22:34;;;;;;;4.32;1.17;;;11.90;86.60;;;;;;5046690;28;20107;-80
2021/10/21 07:25:00;;;;;;;6.28;1.30;;;11.90;86.50;;;;;;5050579;28;20171;-82
2021/10/21 07:27:25;;;;;;;6.38;1.40;;;12.00;86.40;;;;;;5042668;28;20015;-83
2021/10/21 07:29:51;;;;;;;7.28;1.63;;;12.00;86.30;;;;;;5042083;28;20025;-82
2021/10/21 07:32:17;;;;;;;3.13;1.05;;;12.00;86.10;;;;;;5043933;28;20028;-83
2021/10/21 07:34:42;;;;;;;3.42;1.75;;;12.00;86.00;;;;;;5049094;28;20439;-81
2021/10/21 07:37:09;;;;;;;10.13;4.65;;;12.00;86.00;;;;;;5045430;28;20032;-82
2021/10/21 07:39:34;;;;;;;7.35;4.70;;;12.10;86.00;;;;;;5044927;28;20025;-82
2021/10/21 07:42:02;;;;;;;6.32;1.80;;;12.10;85.90;;;;;;5040457;28;20487;-84
2021/10/21 07:44:35;;;;;;;6.18;1.63;;;12.10;85.90;;;;;;5048623;28;20032;-83
2021/10/21 07:47:02;;;;;;;6.55;1.67;;;12.10;85.80;;;;;;5051986;28;20025;-81
2021/10/21 07:49:28;;;;;;;7.22;1.90;;;12.10;85.60;;;;;;5043810;28;20021;-81
2021/10/21 07:51:55;;;;;;;5.85;1.33;;;12.10;85.50;;;;;;5047785;28;20025;-80
2021/10/21 07:54:24;;;;;;;6.80;1.52;;;12.10;85.30;;;;;;5044158;28;20026;-80
2021/10/21 07:56:50;;;;;;;5.22;1.63;;;12.10;85.20;;;;;;5043522;28;20406;-80
2021/10/21 07:59:17;;;;;;;6.13;1.80;;;12.10;84.90;;;;;;5047983;28;20025;-81
2021/10/21 08:01:43;;;;;;;6.07;1.75;;;12.00;84.60;;;;;;5048028;28;20698;-79
2021/10/21 08:04:09;;;;;;;5.68;1.63;;;12.00;84.80;;;;;;5043579;28;20059;-81
2021/10/21 08:06:35;;;;;;;4.38;1.45;;;12.00;84.90;;;;;;5043077;28;20534;-79
2021/10/21 08:09:03;;;;;;;10.82;2.00;;;12.00;84.90;;;;;;5040845;28;20017;-80
2021/10/21 08:11:29;;;;;;;6.32;1.83;;;12.00;84.70;;;;;;5043315;28;20059;-79
2021/10/21 08:13:55;;;;;;;10.88;2.05;;;12.00;84.50;;;;;;5043234;28;20082;-80
2021/10/21 08:16:21;;;;;;;4.97;1.70;;;12.10;84.30;;;;;;5046791;28;20639;-80
2021/10/21 08:18:47;;;;;;;9.45;1.98;;;12.10;84.00;;;;;;5046818;28;20033;-79
2021/10/21 08:21:12;;;;;;;8.65;2.00;;;12.20;83.70;;;;;;5050044;28;20025;-82
2021/10/21 08:23:38;;;;;;;6.00;1.50;;;12.30;83.30;;;;;;5045719;28;20021;-80
2021/10/21 08:26:03;;;;;;;7.07;2.08;;;12.20;82.60;;;;;;5046894;28;20461;-80
2021/10/21 08:28:29;;;;;;;9.13;2.17;;;12.20;81.80;;;;;;5047014;28;20464;-79
2021/10/21 08:30:54;;;;;;;10.63;1.98;;;12.20;81.20;;;;;;5051172;28;20029;-78
2021/10/21 08:33:20;;;;;;;7.68;2.03;;;12.20;80.60;;;;;;5041647;28;20033;-81
2021/10/21 08:35:46;;;;;;;8.15;1.85;;;12.20;81.10;;;;;;5045127;28;20056;-79
2021/10/21 08:38:12;;;;;;;6.97;1.73;;;12.30;79.60;;;;;;5041375;28;20096;-78
2021/10/21 08:40:38;;;;;;;5.35;1.60;;;12.30;78.90;;;;;;5007330;28;20567;-82
2021/10/21 08:43:05;;;;;;;7.65;1.70;;;12.30;78.80;;;;;;5045654;28;20025;-80
2021/10/21 08:45:31;;;;;;;5.38;1.40;;;12.40;78.60;;;;;;5044144;28;20049;-78
2021/10/21 08:48:01;;;;;;;6.88;1.70;;;12.50;78.40;;;;;;5046839;28;20055;-80
2021/10/21 08:50:28;;;;;;;4.40;1.33;;;12.50;77.70;;;;;;5040649;28;20021;-79
2021/10/21 08:52:54;;;;;;;5.50;1.73;;;12.50;77.30;;;;;;5043649;28;20074;-79
2021/10/21 08:55:20;;;;;;;8.20;1.75;;;12.60;77.00;;;;;;5043375;28;20037;-79
2021/10/21 08:57:46;;;;;;;4.90;1.50;;;12.70;76.60;;;;;;5043984;28;20040;-78
2021/10/21 09:00:13;;;;;;;5.68;1.70;;;12.80;76.10;;;;;;5041267;28;20811;-81
2021/10/21 09:02:56;;;;;;;3.35;1.35;;;12.80;75.60;;;;;;5045744;28;20018;-80
2021/10/21 09:05:40;;;;;;;4.72;1.42;;;12.90;75.70;;;;;;5042184;28;20025;-80
2021/10/21 09:08:11;;;;;;;3.95;1.25;;;12.70;76.00;;;;;;5043897;28;20029;-82
2021/10/21 09:11:04;;;;;;;3.63;1.15;;;12.50;76.60;;;;;;5047173;28;20029;-78
2021/10/21 09:13:38;;;;;;;5.47;1.27;;;12.20;77.60;;;;;;5038401;28;20064;-78
2021/10/21 09:16:08;;;;;;;3.58;1.10;;;12.00;78.50;;;;;;5050367;28;20058;-77
2021/10/21 09:18:46;;;;;;;4.00;1.00;;;11.90;79.30;;;;;;5048412;28;20032;-78
2021/10/21 09:21:33;;;;;;;4.40;1.20;;;11.80;80.00;;;;;;5045318;28;20029;-78
2021/10/21 09:24:22;;;;;;;3.90;1.35;;;11.70;80.90;;;;;;5049273;28;20117;-80
2021/10/21 09:27:07;;;;;;;3.90;1.35;;;11.70;81.50;;;;;;5047417;28;20013;-78
2021/10/21 09:29:37;;;;;;;3.45;1.17;;;11.70;81.90;;;;;;5046980;28;20026;-78
2021/10/21 09:32:27;;;;;;;4.03;1.40;;;11.70;82.00;;;;;;5043381;28;20033;-80
2021/10/21 09:34:54;;;;;;;2.47;1.15;;;11.70;82.30;;;;;;5046274;28;20041;-80
2021/10/21 09:37:28;;;;;;;3.38;1.30;;;11.70;82.60;;;;;;5044896;28;20053;-79
2021/10/21 09:40:14;;;;;;;2.63;1.40;;;11.60;82.80;;;;;;5046655;28;20043;-87
2021/10/21 09:42:44;;;;;;;6.38;1.70;;;11.70;83.00;;;;;;5044349;28;20075;-86
2021/10/21 09:45:21;;;;;;;2.88;1.25;;;11.70;83.20;;;;;;5047500;28;20017;-79
2021/10/21 09:47:51;;;;;;;3.30;1.20;;;11.70;83.10;;;;;;5045438;28;20045;-78
2021/10/21 09:50:22;;;;;;;3.70;1.35;;;11.70;83.30;;;;;;5041076;28;20059;-78
2021/10/21 09:53:20;;;;;;;4.22;1.50;;;11.70;83.60;;;;;;5045467;28;20017;-77
2021/10/21 09:55:51;;;;;;;4.47;1.33;;;11.70;83.60;;;;;;5044608;28;20480;-77
2021/10/21 09:58:20;;;;;;;5.35;1.52;;;11.80;83.80;;;;;;5046399;28;20035;-77
2021/10/21 10:00:46;;;;;;;4.10;1.10;;;11.70;84.00;;;;;;5046681;28;20037;-76
2021/10/21 10:03:20;;;;;;;4.35;1.40;;;11.70;84.20;;;;;;5053885;28;20024;-76
2021/10/21 10:05:54;;;;;;;4.95;1.33;;;11.70;85.00;;;;;;5049445;28;20498;-76
2021/10/21 10:08:21;;;;;;;3.97;1.10;;;11.60;84.60;;;;;;5045425;28;20032;-76
2021/10/21 10:10:52;;;;;;;2.78;1.02;;;11.70;84.90;;;;;;5049009;28;20460;-76
2021/10/21 10:13:19;;;;;;;4.57;1.30;;;11.70;85.00;;;;;;5048358;28;20087;-76
2021/10/21 10:15:47;;;;;;;3.95;1.10;;;11.80;85.10;;;;;;5056432;28;20036;-75
2021/10/21 10:18:21;;;;;;;3.97;1.25;;;11.80;85.20;;;;;;5042939;28;20029;-76
2021/10/21 10:20:52;;;;;;;2.88;1.10;;;11.90;85.20;;;;;;5043660;28;20036;-75
2021/10/21 10:23:20;;;;;;;4.65;1.25;;;12.00;85.20;;;;;;5045634;28;20045;-77
2021/10/21 10:25:48;;;;;;;3.35;1.27;;;12.20;85.50;;;;;;5047208;28;20016;-75
2021/10/21 10:28:15;;;;;;;5.05;1.23;;;12.20;85.60;;;;;;5045313;28;20025;-76
2021/10/21 10:30:59;;;;;;;5.43;1.50;;;12.30;85.60;;;;;;5041299;28;20025;-76
2021/10/21 10:33:41;;;;;;;4.50;1.10;;;12.30;85.70;;;;;;5050127;28;20067;-77
2021/10/21 10:36:30;;;;;;;3.33;1.27;;;12.50;85.50;;;;;;5046861;28;20037;-76
2021/10/21 10:39:01;;;;;;;4.97;1.30;;;12.60;85.50;;;;;;5039778;28;20052;-76
2021/10/21 10:41:45;;;;;;;5.25;1.50;;;12.70;85.40;;;;;;5049980;28;20039;-80
2021/10/21 10:44:12;;;;;;;6.60;1.77;;;12.80;85.20;;;;;;5047304;28;20020;-80
2021/10/21 10:47:04;;;;;;;2.80;1.05;;;12.90;84.80;;;;;;5052947;28;20040;-77
2021/10/21 10:49:41;;;;;;;5.07;1.60;;;13.00;84.70;;;;;;5041791;28;20530;-77
2021/10/21 10:52:09;;;;;;;5.68;1.58;;;12.90;84.40;;;;;;5047688;28;20552;-77
2021/10/21 10:54:47;;;;;;;4.72;1.45;;;12.90;84.40;;;;;;5047716;28;20041;-76
2021/10/21 10:57:14;;;;;;;5.13;1.40;;;12.80;84.40;;;;;;5056790;28;20021;-77
2021/10/21 10:59:42;;;;;;;4.82;1.20;;;12.80;84.30;;;;;;5053486;28;20573;-77
2021/10/21 11:02:24;;;;;;;7.50;1.40;;;12.80;84.30;;;;;;5050577;28;20055;-76
2021/10/21 11:04:57;;;;;;;6.50;1.53;;;12.70;84.30;;;;;;5054868;28;20033;-76
2021/10/21 11:07:41;;;;;;;3.85;1.27;;;12.70;84.30;;;;;;5051701;28;20090;-76
2021/10/21 11:10:19;;;;;;;5.75;1.40;;;12.70;84.40;;;;;;5049281;28;20027;-75
2021/10/21 11:12:46;;;;;;;4.78;1.20;;;12.70;84.40;;;;;;5041330;28;20036;-75
2021/10/21 11:15:34;;;;;;;5.22;1.42;;;12.70;84.20;;;;;;5053777;28;20039;-77
2021/10/21 11:18:03;;;;;;;4.72;1.20;;;12.60;84.00;;;;;;5039531;28;20045;-76
2021/10/21 11:20:35;;;;;;;6.20;1.30;;;12.70;83.90;;;;;;5052665;28;20387;-79
2021/10/21 11:23:07;;;;;;;6.15;1.48;;;12.70;83.60;;;;;;5043308;28;20843;-77
2021/10/21 11:25:37;;;;;;;5.63;1.75;;;12.60;83.30;;;;;;5044176;28;20032;-78
2021/10/21 11:28:04;;;;;;;4.95;1.20;;;12.60;82.80;;;;;;5048427;28;20023;-78
2021/10/21 11:30:32;;;;;;;3.38;1.30;;;12.60;82.40;;;;;;5045595;28;20033;-77
2021/10/21 11:33:00;;;;;;;3.45;1.35;;;12.70;82.10;;;;;;5043090;28;20408;-78
2021/10/21 11:35:28;;;;;;;3.60;1.10;;;12.80;81.50;;;;;;5038364;28;20033;-78
2021/10/21 11:38:02;;;;;;;3.28;1.20;;;12.90;81.00;;;;;;5047864;28;20040;-78
2021/10/21 11:40:45;;;;;;;3.20;1.23;;;12.90;80.30;;;;;;5046746;28;20029;-79
2021/10/21 11:43:13;;;;;;;;;;;12.90;79.60;;;;;;5048271;28;20100;-79
2021/10/21 11:45:41;;;;;;;5.00;1.45;;;13.00;79.00;;;;;;5044007;28;19948;-80
2021/10/21 11:48:12;;;;;;;4.57;1.30;;;13.00;78.40;;;;;;5040969;28;20039;-80
2021/10/21 11:50:45;;;;;;;5.28;1.15;;;13.10;77.80;;;;;;5044102;28;20029;-78
2021/10/21 11:53:13;;;;;;;1.98;0.90;;;13.10;77.30;;;;;;5050591;28;20027;-79
2021/10/21 11:55:41;;;;;;;1.23;0.50;;;12.80;76.50;;;;;;5045251;28;20029;-80
2021/10/21 11:58:24;;;;;;;1.13;0.50;;;12.30;76.70;;;;;;5040522;28;20028;-80
2021/10/21 12:00:55;;;;;;;0.60;0.60;;;11.90;77.50;;;;;;5062956;28;20032;-80
2021/10/21 12:03:42;;;;;;;0.95;0.60;;;11.50;78.70;;;;;;5043097;28;20032;-81
2021/10/21 12:06:10;;;;;;;1.38;0.60;;;11.40;79.60;;;;;;5042880;28;20094;-78
2021/10/21 12:08:36;;;;;;;0.85;0.60;;;11.20;80.20;;;;;;5043555;28;20029;-78
2021/10/21 12:11:06;;;;;;;1.25;0.70;;;11.20;80.50;;;;;;5042826;28;20029;-80
2021/10/21 12:13:34;;;;;;;1.90;0.70;;;11.10;80.80;;;;;;5048445;28;20025;-81
2021/10/21 12:16:04;;;;;;;0.70;0.50;;;11.00;81.00;;;;;;5045062;28;20074;-79
2021/10/21 12:18:31;;;;;;;2.70;0.80;;;11.00;81.30;;;;;;5042679;28;20475;-78
2021/10/21 12:21:06;;;;;;;0.73;0.45;;;11.00;81.40;;;;;;5044466;28;20143;-80
2021/10/21 12:23:46;;;;;;;1.17;0.73;;;11.10;81.50;;;;;;5043970;28;20025;-79
2021/10/21 12:26:18;;;;;;;1.23;0.60;;;11.10;81.50;;;;;;5050525;28;20495;-78
2021/10/21 12:28:46;;;;;;;1.67;0.75;;;11.00;81.50;;;;;;5053207;28;20475;-78
2021/10/21 12:31:22;;;;;;;0.77;0.50;;;11.00;81.80;;;;;;5043043;28;20551;-78
2021/10/21 12:33:53;;;;;;;1.38;0.70;;;11.00;82.00;;;;;;5055641;28;20024;-78
2021/10/21 12:36:24;;;;;;;2.33;0.70;;;11.10;82.00;;;;;;5050752;28;20044;-78
2021/10/21 12:38:53;;;;;;;1.33;0.95;;;11.10;82.00;;;;;;5037536;28;20033;-78
2021/10/21 12:41:21;;;;;;;1.52;0.63;;;11.20;81.90;;;;;;5057722;28;20079;-76
2021/10/21 12:44:05;;;;;;;1.20;0.90;;;11.20;82.00;;;;;;5045203;28;20021;-78
2021/10/21 12:46:32;;;;;;;2.63;0.70;;;11.20;82.00;;;;;;5049738;28;20021;-79
2021/10/21 12:49:20;;;;;;;2.28;0.70;;;11.20;82.10;;;;;;5044957;28;20078;-78
2021/10/21 12:51:47;;;;;;;1.30;0.70;;;11.30;82.10;;;;;;5047645;28;20471;-77
2021/10/21 12:54:39;;;;;;;1.80;0.80;;;11.30;82.20;;;;;;5052349;28;20036;-78